createdAt,value
2019-03-30T00:01:37.153Z,15.00
2019-03-30T00:04:08.963Z,15.75
2019-03-30T00:06:39.659Z,14.70
2019-03-30T00:09:10.775Z,15.83
2019-03-30T00:11:41.700Z,16.17
2019-03-30T00:14:12.375Z,15.00
2019-03-30T00:16:42.974Z,16.97
2019-03-30T00:19:14.047Z,16.10
2019-03-30T00:21:44.788Z,16.40
2019-03-30T00:24:15.377Z,16.80
2019-03-30T00:26:46.019Z,15.93
2019-03-30T00:29:16.940Z,15.40
2019-03-30T00:31:48.846Z,16.60
2019-03-30T00:34:19.452Z,15.07
2019-03-30T00:36:50.246Z,16.83
2019-03-30T00:39:21.004Z,15.35
2019-03-30T00:41:51.786Z,14.40
2019-03-30T00:44:22.391Z,14.90
2019-03-30T00:46:53.290Z,14.57
2019-03-30T00:49:24.063Z,15.80
2019-03-30T00:51:54.961Z,15.50
2019-03-30T00:54:25.782Z,15.07
2019-03-30T00:56:56.586Z,15.33
2019-03-30T00:59:27.177Z,15.03
2019-03-30T01:01:57.998Z,13.73
2019-03-30T01:04:28.607Z,16.10
2019-03-30T01:06:59.317Z,14.93
2019-03-30T01:09:29.924Z,14.53
2019-03-30T01:12:00.554Z,15.07
2019-03-30T01:14:31.134Z,13.37
2019-03-30T01:17:01.806Z,16.17
2019-03-30T01:19:32.574Z,15.13
2019-03-30T01:22:03.269Z,16.80
2019-03-30T01:24:33.916Z,15.73
2019-03-30T01:27:05.925Z,17.85
2019-03-30T01:29:36.580Z,16.63
2019-03-30T01:32:07.398Z,14.30
2019-03-30T01:34:38.179Z,14.37
2019-03-30T01:37:08.845Z,14.80
2019-03-30T01:39:39.654Z,14.40
2019-03-30T01:42:10.246Z,14.43
2019-03-30T01:44:40.836Z,17.23
2019-03-30T01:47:11.902Z,14.63
2019-03-30T01:49:42.724Z,16.23
2019-03-30T01:52:14.304Z,13.60
2019-03-30T01:54:44.892Z,13.60
2019-03-30T01:57:15.852Z,14.30
2019-03-30T01:59:47.254Z,14.90
2019-03-30T02:02:18.061Z,13.57
2019-03-30T02:04:48.794Z,16.10
2019-03-30T02:07:19.400Z,15.45
2019-03-30T02:09:50.047Z,15.37
2019-03-30T02:12:20.968Z,15.40
2019-03-30T02:14:51.836Z,15.60
2019-03-30T02:17:22.825Z,15.43
2019-03-30T02:19:53.607Z,16.20
2019-03-30T02:22:24.313Z,14.87
2019-03-30T02:24:54.903Z,16.90
2019-03-30T02:27:25.856Z,15.50
2019-03-30T02:29:56.746Z,15.57
2019-03-30T02:32:27.431Z,17.60
2019-03-30T02:34:59.075Z,15.80
2019-03-30T02:37:32.883Z,14.60
2019-03-30T02:40:03.477Z,16.00
2019-03-30T02:42:34.167Z,16.80
2019-03-30T02:45:06.381Z,16.73
2019-03-30T02:47:37.144Z,16.00
2019-03-30T02:50:08.551Z,15.83
2019-03-30T02:52:39.239Z,15.30
2019-03-30T02:55:12.697Z,14.63
2019-03-30T02:57:43.986Z,15.53
2019-03-30T03:00:15.503Z,15.48
2019-03-30T03:02:46.085Z,14.07
2019-03-30T03:05:17.255Z,14.60
2019-03-30T03:07:48.007Z,14.27
2019-03-30T03:10:19.410Z,14.43
2019-03-30T03:12:50.050Z,14.50
2019-03-30T03:15:21.739Z,14.70
2019-03-30T03:17:52.434Z,14.60
2019-03-30T03:20:23.151Z,14.67
2019-03-30T03:22:53.797Z,16.00
2019-03-30T03:25:24.391Z,14.50
2019-03-30T03:27:55.228Z,14.27
2019-03-30T03:30:26.178Z,14.77
2019-03-30T03:32:57.148Z,14.80
2019-03-30T03:35:27.742Z,14.00
2019-03-30T03:37:58.434Z,14.33
2019-03-30T03:40:29.300Z,14.73
2019-03-30T03:42:59.905Z,13.70
2019-03-30T03:45:30.443Z,15.00
2019-03-30T03:48:01.484Z,15.33
2019-03-30T03:50:53.752Z,16.77
2019-03-30T03:53:24.570Z,14.13
2019-03-30T03:55:56.282Z,15.50
2019-03-30T03:58:28.980Z,14.47
2019-03-30T04:01:02.626Z,14.27
2019-03-30T04:03:34.594Z,14.90
2019-03-30T04:06:07.327Z,14.10
2019-03-30T04:08:41.722Z,14.70
2019-03-30T04:11:14.785Z,14.67
2019-03-30T04:13:47.758Z,14.60
2019-03-30T04:16:18.428Z,14.00
2019-03-30T04:18:49.319Z,13.03
2019-03-30T04:21:19.908Z,14.57
2019-03-30T04:23:54.272Z,12.77
2019-03-30T04:26:23.034Z,13.30
2019-03-30T04:28:53.652Z,13.90
2019-03-30T04:31:24.643Z,12.03
2019-03-30T04:33:55.453Z,12.40
2019-03-30T04:36:26.043Z,13.77
2019-03-30T04:38:56.830Z,14.17
2019-03-30T04:41:27.513Z,13.60
2019-03-30T04:43:58.123Z,13.27
2019-03-30T04:46:28.718Z,12.47
2019-03-30T04:48:59.905Z,13.80
2019-03-30T04:51:30.683Z,13.47
2019-03-30T04:54:01.557Z,13.20
2019-03-30T04:56:32.659Z,13.10
2019-03-30T04:59:03.502Z,12.93
2019-03-30T05:01:34.097Z,11.77
2019-03-30T05:04:04.694Z,13.90
2019-03-30T05:06:35.531Z,13.40
2019-03-30T05:09:07.415Z,13.80
2019-03-30T05:11:38.078Z,14.60
2019-03-30T05:14:08.774Z,12.60
2019-03-30T05:16:41.390Z,13.17
2019-03-30T05:19:12.074Z,12.70
2019-03-30T05:21:42.717Z,15.00
2019-03-30T05:24:13.690Z,13.53
2019-03-30T05:26:44.387Z,12.93
2019-03-30T05:29:15.003Z,12.83
2019-03-30T05:31:45.666Z,12.37
2019-03-30T05:34:16.334Z,12.07
2019-03-30T05:36:46.931Z,12.70
2019-03-30T05:39:17.811Z,11.35
2019-03-30T05:41:50.048Z,12.70
2019-03-30T05:44:20.815Z,12.07
2019-03-30T05:46:51.808Z,13.07
2019-03-30T05:49:22.756Z,11.47
2019-03-30T05:51:53.307Z,11.53
2019-03-30T05:54:24.230Z,11.00
2019-03-30T05:56:54.834Z,13.60
2019-03-30T05:59:25.666Z,12.60
2019-03-30T06:01:56.609Z,13.40
2019-03-30T06:04:27.261Z,12.80
2019-03-30T06:06:57.912Z,12.50
2019-03-30T06:09:28.762Z,13.13
2019-03-30T06:11:59.378Z,11.83
2019-03-30T06:14:30.073Z,18.20
2019-03-30T06:17:00.891Z,17.83
2019-03-30T06:19:31.506Z,13.97
2019-03-30T06:22:02.094Z,12.07
2019-03-30T06:24:33.086Z,11.43
2019-03-30T06:27:04.224Z,12.00
2019-03-30T06:29:35.008Z,11.57
2019-03-30T06:32:07.275Z,11.10
2019-03-30T06:34:37.873Z,12.93
2019-03-30T06:37:08.529Z,12.20
2019-03-30T06:39:39.202Z,11.93
2019-03-30T06:42:10.035Z,10.50
2019-03-30T06:44:40.935Z,11.47
2019-03-30T06:47:11.534Z,12.37
2019-03-30T06:49:42.207Z,11.20
2019-03-30T06:52:13.025Z,11.17
2019-03-30T06:54:43.723Z,12.73
2019-03-30T06:57:14.338Z,10.43
2019-03-30T06:59:45.083Z,11.87
2019-03-30T07:02:19.348Z,10.60
2019-03-30T07:04:50.776Z,10.37
2019-03-30T07:07:23.573Z,11.30
2019-03-30T07:09:54.182Z,11.07
2019-03-30T07:12:25.639Z,11.53
2019-03-30T07:14:59.190Z,10.60
2019-03-30T07:17:31.276Z,11.80
2019-03-30T07:20:04.892Z,11.43
2019-03-30T07:22:35.520Z,9.70
2019-03-30T07:25:07.474Z,10.98
2019-03-30T07:27:38.274Z,11.13
2019-03-30T07:30:09.232Z,10.20
2019-03-30T07:32:40.142Z,11.30
2019-03-30T07:35:11.302Z,11.35
2019-03-30T07:37:42.139Z,10.40
2019-03-30T07:40:13.270Z,10.20
2019-03-30T07:42:44.546Z,12.80
2019-03-30T07:45:15.754Z,12.20
2019-03-30T07:47:46.479Z,10.57
2019-03-30T07:50:17.973Z,12.90
2019-03-30T07:52:48.632Z,10.07
2019-03-30T07:55:19.452Z,13.47
2019-03-30T07:57:50.186Z,13.90
2019-03-30T08:00:21.564Z,14.60
2019-03-30T08:02:52.247Z,14.73
2019-03-30T08:05:22.896Z,13.83
2019-03-30T08:07:53.539Z,14.00
2019-03-30T08:10:24.303Z,14.20
2019-03-30T08:12:54.896Z,14.50
2019-03-30T08:15:25.570Z,14.37
2019-03-30T08:17:56.294Z,15.70
2019-03-30T08:20:26.936Z,13.23
2019-03-30T08:22:59.511Z,14.33
2019-03-30T08:25:30.442Z,15.23
2019-03-30T08:28:01.053Z,15.70
2019-03-30T08:30:31.627Z,14.87
2019-03-30T08:33:02.523Z,17.07
2019-03-30T08:35:33.407Z,14.87
2019-03-30T08:38:04.016Z,15.13
2019-03-30T08:40:34.629Z,12.60
2019-03-30T08:43:05.446Z,12.27
2019-03-30T08:45:36.037Z,12.60
2019-03-30T08:48:07.740Z,11.12
2019-03-30T08:50:38.616Z,15.23
2019-03-30T08:53:09.503Z,14.20
2019-03-30T08:55:40.127Z,12.20
2019-03-30T08:58:10.706Z,15.73
2019-03-30T09:00:43.078Z,15.30
2019-03-30T09:03:13.908Z,16.63
2019-03-30T09:05:44.624Z,16.17
2019-03-30T09:08:15.501Z,15.05
2019-03-30T09:10:46.134Z,16.53
2019-03-30T09:13:16.982Z,15.93
2019-03-30T09:15:47.492Z,11.30
2019-03-30T09:18:18.277Z,14.20
2019-03-30T09:20:48.963Z,16.07
2019-03-30T09:23:19.917Z,14.60
2019-03-30T09:25:51.029Z,16.50
2019-03-30T09:28:21.769Z,16.07
2019-03-30T09:30:52.659Z,16.97
2019-03-30T09:33:23.370Z,14.47
2019-03-30T09:35:54.097Z,14.90
2019-03-30T09:38:25.012Z,15.00
2019-03-30T09:40:55.715Z,15.27
2019-03-30T09:43:26.343Z,17.63
2019-03-30T09:45:56.950Z,14.97
2019-03-30T09:48:27.854Z,15.70
2019-03-30T09:50:58.837Z,15.40
2019-03-30T09:53:29.787Z,16.70
2019-03-30T09:56:00.671Z,14.60
2019-03-30T09:58:31.367Z,15.20
2019-03-30T10:01:02.003Z,12.27
2019-03-30T10:03:32.738Z,16.13
2019-03-30T10:06:03.424Z,13.87
2019-03-30T10:08:34.014Z,13.97
2019-03-30T10:11:06.116Z,16.47
2019-03-30T10:13:36.805Z,13.07
2019-03-30T10:16:08.175Z,11.65
2019-03-30T10:18:38.934Z,11.03
2019-03-30T10:21:09.879Z,15.40
2019-03-30T10:23:40.820Z,15.10
2019-03-30T10:26:11.540Z,12.80
2019-03-30T10:28:47.214Z,14.70
2019-03-30T10:31:18.000Z,13.33
2019-03-30T10:33:50.238Z,14.67
2019-03-30T10:36:22.208Z,15.90
2019-03-30T10:38:52.975Z,11.63
2019-03-30T10:41:23.627Z,12.57
2019-03-30T10:43:54.324Z,13.67
2019-03-30T10:46:25.167Z,13.67
2019-03-30T10:48:56.037Z,15.37
2019-03-30T10:51:27.026Z,13.93
2019-03-30T10:53:57.902Z,13.30
2019-03-30T10:56:28.592Z,15.20
2019-03-30T10:58:59.310Z,13.00
2019-03-30T11:01:30.246Z,12.80
2019-03-30T11:04:01.024Z,14.37
2019-03-30T11:06:31.735Z,15.23
2019-03-30T11:09:02.732Z,15.90
2019-03-30T11:11:34.073Z,15.07
2019-03-30T11:14:04.773Z,15.60
2019-03-30T11:16:35.414Z,17.00
2019-03-30T11:19:06.139Z,16.50
2019-03-30T11:21:36.870Z,17.87
2019-03-30T11:24:08.496Z,14.43
2019-03-30T11:26:39.163Z,14.90
2019-03-30T11:29:10.243Z,14.45
2019-03-30T11:31:41.097Z,17.47
2019-03-30T11:34:14.834Z,13.77
2019-03-30T11:36:45.480Z,13.70
2019-03-30T11:39:16.352Z,14.10
2019-03-30T11:41:47.235Z,12.70
2019-03-30T11:44:18.355Z,12.70
2019-03-30T11:46:49.184Z,13.83
2019-03-30T11:49:21.023Z,12.00
2019-03-30T11:51:51.807Z,14.10
2019-03-30T11:54:22.487Z,13.13
2019-03-30T11:56:53.388Z,11.20
2019-03-30T11:59:24.264Z,10.93
2019-03-30T12:01:55.285Z,12.20
2019-03-30T12:04:25.968Z,10.80
2019-03-30T12:06:56.673Z,14.00
2019-03-30T12:09:27.349Z,12.87
2019-03-30T12:11:58.274Z,14.00
2019-03-30T12:14:28.873Z,13.67
2019-03-30T12:16:59.548Z,12.90
2019-03-30T12:19:30.405Z,14.33
2019-03-30T12:22:01.378Z,12.13
2019-03-30T12:24:32.420Z,12.20
2019-03-30T12:27:03.330Z,10.90
2019-03-30T12:29:34.154Z,16.70
2019-03-30T12:32:04.777Z,17.53
2019-03-30T12:34:35.835Z,14.47
2019-03-30T12:37:06.731Z,17.17
2019-03-30T12:39:37.387Z,17.97
2019-03-30T12:42:09.012Z,17.60
2019-03-30T12:44:39.794Z,16.93
2019-03-30T12:47:10.712Z,14.90
2019-03-30T12:49:45.235Z,17.97
2019-03-30T12:52:15.548Z,14.45
2019-03-30T12:54:46.460Z,15.67
2019-03-30T12:57:17.205Z,14.73
2019-03-30T12:59:47.933Z,15.50
2019-03-30T13:02:18.726Z,16.33
2019-03-30T13:04:50.023Z,14.63
2019-03-30T13:07:20.927Z,14.10
2019-03-30T13:09:51.804Z,11.37
2019-03-30T13:12:22.681Z,13.13
2019-03-30T13:14:53.636Z,14.50
2019-03-30T13:17:24.618Z,15.50
2019-03-30T13:19:55.738Z,16.10
2019-03-30T13:22:26.657Z,16.40
2019-03-30T13:24:57.545Z,14.70
2019-03-30T13:27:28.174Z,14.30
2019-03-30T13:29:59.062Z,16.40
2019-03-30T13:32:29.783Z,13.57
2019-03-30T13:35:00.820Z,14.67
2019-03-30T13:37:31.660Z,14.53
2019-03-30T13:40:02.411Z,14.77
2019-03-30T13:42:33.030Z,15.53
2019-03-30T13:45:04.475Z,12.70
2019-03-30T13:47:35.207Z,11.50
2019-03-30T13:50:08.041Z,12.40
2019-03-30T13:52:38.811Z,14.83
2019-03-30T13:55:10.049Z,12.03
2019-03-30T13:57:40.673Z,12.40
2019-03-30T14:00:11.921Z,19.03
2019-03-30T14:02:44.206Z,18.10
2019-03-30T14:05:15.375Z,13.10
2019-03-30T14:07:46.118Z,17.97
2019-03-30T14:10:17.602Z,18.43
2019-03-30T14:12:48.299Z,14.43
2019-03-30T14:15:20.088Z,17.27
2019-03-30T14:17:50.891Z,18.90
2019-03-30T14:20:21.965Z,14.70
2019-03-30T14:22:52.893Z,16.77
2019-03-30T14:25:23.829Z,17.57
2019-03-30T14:27:55.777Z,17.70
2019-03-30T14:30:26.462Z,14.20
2019-03-30T14:32:57.196Z,17.00
2019-03-30T14:35:28.014Z,16.57
2019-03-30T14:37:58.980Z,15.00
2019-03-30T14:40:31.064Z,14.00
2019-03-30T14:43:02.045Z,12.90
2019-03-30T14:45:32.625Z,15.10
2019-03-30T14:48:03.289Z,16.90
2019-03-30T14:50:35.187Z,15.83
2019-03-30T14:53:06.084Z,15.10
2019-03-30T14:55:40.945Z,16.17
2019-03-30T14:58:09.962Z,14.63
2019-03-30T15:00:40.620Z,16.33
2019-03-30T15:03:11.368Z,15.40
2019-03-30T15:05:42.158Z,14.93
2019-03-30T15:08:13.338Z,15.30
2019-03-30T15:10:44.139Z,15.17
2019-03-30T15:13:15.343Z,14.97
2019-03-30T15:15:46.137Z,15.90
2019-03-30T15:18:17.200Z,16.20
2019-03-30T15:20:48.183Z,16.70
2019-03-30T15:23:19.375Z,13.13
2019-03-30T15:25:51.272Z,16.83
2019-03-30T15:28:22.291Z,14.00
2019-03-30T15:30:53.234Z,14.13
2019-03-30T15:33:24.271Z,14.93
2019-03-30T15:35:55.131Z,13.70
2019-03-30T15:38:27.399Z,14.30
2019-03-30T15:40:58.495Z,15.10
2019-03-30T15:43:38.018Z,13.07
2019-03-30T15:46:03.018Z,13.83
2019-03-30T15:48:33.739Z,14.07
2019-03-30T15:51:04.436Z,14.67
2019-03-30T15:53:35.209Z,14.70
2019-03-30T15:56:05.811Z,14.40
2019-03-30T15:58:36.588Z,13.27
2019-03-30T16:01:07.379Z,14.43
2019-03-30T16:03:38.216Z,15.10
2019-03-30T16:06:09.557Z,16.75
2019-03-30T16:08:40.258Z,13.90
2019-03-30T16:11:11.566Z,14.23
2019-03-30T16:13:42.331Z,14.50
2019-03-30T16:16:13.227Z,14.83
2019-03-30T16:18:43.865Z,15.03
2019-03-30T16:21:14.497Z,14.60
2019-03-30T16:23:46.811Z,15.70
2019-03-30T16:26:17.732Z,15.30
2019-03-30T16:28:53.555Z,15.53
2019-03-30T16:31:25.369Z,15.10
2019-03-30T16:33:56.036Z,17.83
2019-03-30T16:36:26.725Z,17.70
2019-03-30T16:38:57.629Z,19.03
2019-03-30T16:41:28.872Z,17.03
2019-03-30T16:43:59.751Z,16.67
2019-03-30T16:46:30.567Z,15.30
2019-03-30T16:49:02.873Z,16.90
2019-03-30T16:51:33.590Z,15.73
2019-03-30T16:54:04.512Z,15.33
2019-03-30T16:56:35.555Z,14.90
2019-03-30T16:59:06.218Z,14.90
2019-03-30T17:01:36.969Z,14.27
2019-03-30T17:04:10.679Z,13.90
2019-03-30T17:06:41.668Z,15.70
2019-03-30T17:09:12.913Z,13.33
2019-03-30T17:11:43.590Z,13.50
2019-03-30T17:14:14.591Z,14.33
2019-03-30T17:16:45.590Z,15.37
2019-03-30T17:19:17.324Z,16.50
2019-03-30T17:21:48.070Z,15.33
2019-03-30T17:24:19.005Z,15.97
2019-03-30T17:26:49.685Z,14.83
2019-03-30T17:29:21.004Z,14.68
2019-03-30T17:31:51.792Z,15.67
2019-03-30T17:34:23.050Z,13.37
2019-03-30T17:36:53.867Z,14.47
2019-03-30T17:39:24.795Z,16.23
2019-03-30T17:41:55.615Z,14.33
2019-03-30T17:44:26.305Z,15.73
2019-03-30T17:46:57.005Z,17.13
2019-03-30T17:49:27.935Z,16.90
2019-03-30T17:51:58.780Z,17.87
2019-03-30T17:54:30.845Z,18.30
2019-03-30T17:57:01.723Z,19.70
2019-03-30T17:59:32.381Z,18.40
2019-03-30T18:02:04.609Z,17.90
2019-03-30T18:04:38.784Z,17.10
2019-03-30T18:07:13.438Z,17.45
2019-03-30T18:09:42.860Z,17.10
2019-03-30T18:12:14.014Z,16.20
2019-03-30T18:14:44.854Z,15.37
2019-03-30T18:17:16.381Z,17.30
2019-03-30T18:19:47.217Z,20.10
2019-03-30T18:22:18.014Z,16.97
2019-03-30T18:24:48.865Z,16.37
2019-03-30T18:27:20.291Z,17.07
2019-03-30T18:29:51.184Z,18.57
2019-03-30T18:32:22.054Z,19.70
2019-03-30T18:34:52.950Z,20.27
2019-03-30T18:37:25.124Z,18.37
2019-03-30T18:39:56.116Z,18.13
2019-03-30T18:42:28.698Z,19.90
2019-03-30T18:45:00.360Z,18.40
2019-03-30T18:47:31.229Z,17.17
2019-03-30T18:50:02.030Z,18.70
2019-03-30T18:52:34.539Z,18.77
2019-03-30T18:55:05.714Z,17.63
2019-03-30T18:57:36.519Z,17.07
2019-03-30T19:00:07.418Z,18.60
2019-03-30T19:02:39.026Z,18.90
2019-03-30T19:05:10.551Z,24.00
2019-03-30T19:07:41.274Z,24.63
2019-03-30T19:10:12.209Z,30.10
2019-03-30T19:12:43.132Z,32.13
2019-03-30T19:15:14.005Z,38.00
2019-03-30T19:17:44.714Z,39.30
2019-03-30T19:20:15.620Z,34.23
2019-03-30T19:22:47.492Z,31.73
2019-03-30T19:25:18.490Z,31.33
2019-03-30T19:27:49.510Z,31.30
2019-03-30T19:30:20.695Z,28.90
2019-03-30T19:32:52.648Z,28.33
2019-03-30T19:35:23.340Z,25.97
2019-03-30T19:37:54.204Z,26.50
2019-03-30T19:40:25.168Z,24.70
2019-03-30T19:42:56.190Z,22.13
2019-03-30T19:45:27.304Z,21.50
2019-03-30T19:47:58.321Z,20.37
2019-03-30T19:50:29.146Z,23.53
2019-03-30T19:52:59.872Z,71.40
2019-03-30T19:55:30.540Z,22.60
2019-03-30T19:58:01.217Z,19.97
2019-03-30T20:00:32.650Z,16.50
2019-03-30T20:03:03.410Z,17.27
2019-03-30T20:05:34.186Z,16.17
2019-03-30T20:08:12.044Z,16.50
2019-03-30T20:10:38.062Z,16.97
2019-03-30T20:13:09.305Z,18.20
2019-03-30T20:15:40.308Z,19.30
2019-03-30T20:18:11.388Z,18.33
2019-03-30T20:20:42.168Z,21.27
2019-03-30T20:23:12.771Z,19.97
2019-03-30T20:25:43.494Z,21.43
2019-03-30T20:28:14.415Z,20.13
2019-03-30T20:30:45.187Z,18.10
2019-03-30T20:33:16.389Z,20.17
2019-03-30T20:35:47.670Z,20.00
2019-03-30T20:38:19.499Z,18.03
2019-03-30T20:40:50.307Z,17.70
2019-03-30T20:43:21.305Z,19.23
2019-03-30T20:45:52.213Z,18.67
2019-03-30T20:48:22.980Z,19.07
2019-03-30T20:50:57.742Z,18.67
2019-03-30T20:53:28.749Z,16.90
2019-03-30T20:55:59.473Z,17.67
2019-03-30T20:58:32.280Z,17.70
2019-03-30T21:01:05.740Z,17.00
2019-03-30T21:03:43.714Z,17.20
2019-03-30T21:06:16.548Z,16.50
2019-03-30T21:08:48.604Z,15.40
2019-03-30T21:11:21.076Z,15.63
2019-03-30T21:13:51.786Z,16.60
2019-03-30T21:16:22.909Z,17.30
2019-03-30T21:18:53.585Z,15.87
2019-03-30T21:21:25.799Z,16.73
2019-03-30T21:23:56.468Z,17.10
2019-03-30T21:26:37.287Z,16.70
2019-03-30T21:29:12.636Z,16.70
2019-03-30T21:31:43.338Z,16.23
2019-03-30T21:34:14.083Z,17.20
2019-03-30T21:36:44.803Z,16.10
2019-03-30T21:39:15.681Z,15.73
2019-03-30T21:41:46.552Z,15.87
2019-03-30T21:44:29.042Z,16.33
2019-03-30T21:47:01.454Z,15.33
2019-03-30T21:49:34.000Z,15.20
2019-03-30T21:52:08.215Z,15.43
2019-03-30T21:54:52.121Z,13.90
2019-03-30T21:57:22.753Z,18.07
2019-03-30T21:59:53.672Z,17.67
2019-03-30T22:02:34.015Z,18.48
2019-03-30T22:05:08.919Z,18.70
2019-03-30T22:07:40.223Z,19.27
2019-03-30T22:10:13.828Z,20.03
2019-03-30T22:12:44.630Z,18.37
2019-03-30T22:15:17.391Z,19.05
2019-03-30T22:17:48.107Z,22.10
2019-03-30T22:20:21.281Z,19.57
2019-03-30T22:22:51.323Z,18.10
2019-03-30T22:25:22.029Z,17.97
2019-03-30T22:27:52.600Z,19.43
2019-03-30T22:30:25.294Z,18.97
2019-03-30T22:32:56.129Z,17.80
2019-03-30T22:35:26.877Z,16.83
2019-03-30T22:37:57.717Z,17.37
2019-03-30T22:40:28.420Z,17.15
2019-03-30T22:42:59.284Z,17.57
2019-03-30T22:45:29.811Z,18.40
2019-03-30T22:48:00.421Z,17.60
2019-03-30T22:50:31.388Z,18.53
2019-03-30T22:53:01.995Z,17.97
2019-03-30T22:55:32.927Z,17.67
2019-03-30T22:58:03.729Z,19.07
2019-03-30T23:00:45.476Z,17.70
2019-03-30T23:03:16.534Z,19.30
2019-03-30T23:05:47.236Z,19.63
2019-03-30T23:08:17.907Z,18.90
2019-03-30T23:10:48.844Z,17.60
2019-03-30T23:13:19.643Z,19.07
2019-03-30T23:15:50.238Z,18.73
2019-03-30T23:18:20.930Z,17.60
2019-03-30T23:20:51.850Z,16.80
2019-03-30T23:23:23.991Z,17.47
2019-03-30T23:25:55.023Z,18.70
2019-03-30T23:28:26.018Z,18.67
2019-03-30T23:30:57.079Z,16.90
2019-03-30T23:33:27.907Z,17.93
2019-03-30T23:35:58.708Z,17.30
2019-03-30T23:38:29.464Z,16.97
2019-03-30T23:41:00.081Z,17.57
2019-03-30T23:43:30.954Z,19.20
2019-03-30T23:46:01.871Z,16.70
2019-03-30T23:48:32.463Z,17.80
2019-03-30T23:51:03.164Z,17.50
2019-03-30T23:53:33.989Z,17.63
2019-03-30T23:56:06.066Z,17.30
2019-03-30T23:58:36.907Z,17.17
